sensor_id;sensor_type;location;lat;lon;timestamp;temperature;humidity
76785;SHT30;66893;44.316;0.092;2023-07-16T00:01:40;24.97;54.74
76785;SHT30;66893;44.316;0.092;2023-07-16T00:04:05;25.00;54.66
76785;SHT30;66893;44.316;0.092;2023-07-16T00:06:31;24.97;54.66
76785;SHT30;66893;44.316;0.092;2023-07-16T00:08:56;24.97;54.69
76785;SHT30;66893;44.316;0.092;2023-07-16T00:11:21;24.97;54.63
76785;SHT30;66893;44.316;0.092;2023-07-16T00:13:47;25.01;54.70
76785;SHT30;66893;44.316;0.092;2023-07-16T00:16:14;25.00;54.73
76785;SHT30;66893;44.316;0.092;2023-07-16T00:18:41;24.94;54.67
76785;SHT30;66893;44.316;0.092;2023-07-16T00:21:07;24.97;54.71
76785;SHT30;66893;44.316;0.092;2023-07-16T00:23:32;24.98;54.66
76785;SHT30;66893;44.316;0.092;2023-07-16T00:25:58;24.98;54.67
76785;SHT30;66893;44.316;0.092;2023-07-16T00:28:23;24.95;54.70
76785;SHT30;66893;44.316;0.092;2023-07-16T00:30:49;24.98;54.74
76785;SHT30;66893;44.316;0.092;2023-07-16T00:33:14;24.98;54.69
76785;SHT30;66893;44.316;0.092;2023-07-16T00:35:47;24.95;54.75
76785;SHT30;66893;44.316;0.092;2023-07-16T00:38:12;24.98;54.75
76785;SHT30;66893;44.316;0.092;2023-07-16T00:40:37;24.97;54.79
76785;SHT30;66893;44.316;0.092;2023-07-16T00:43:03;24.97;54.80
76785;SHT30;66893;44.316;0.092;2023-07-16T00:45:28;24.98;54.81
76785;SHT30;66893;44.316;0.092;2023-07-16T00:47:54;24.95;54.87
76785;SHT30;66893;44.316;0.092;2023-07-16T00:50:19;24.97;54.92
76785;SHT30;66893;44.316;0.092;2023-07-16T00:52:45;24.97;54.93
76785;SHT30;66893;44.316;0.092;2023-07-16T00:55:11;24.97;54.97
76785;SHT30;66893;44.316;0.092;2023-07-16T00:57:38;24.97;54.99
76785;SHT30;66893;44.316;0.092;2023-07-16T01:00:04;24.95;55.02
76785;SHT30;66893;44.316;0.092;2023-07-16T01:02:30;24.95;55.08
76785;SHT30;66893;44.316;0.092;2023-07-16T01:04:55;24.97;55.09
76785;SHT30;66893;44.316;0.092;2023-07-16T01:07:24;24.97;55.14
76785;SHT30;66893;44.316;0.092;2023-07-16T01:09:51;24.95;55.20
76785;SHT30;66893;44.316;0.092;2023-07-16T01:12:21;24.97;55.22
76785;SHT30;66893;44.316;0.092;2023-07-16T01:14:47;24.92;55.25
76785;SHT30;66893;44.316;0.092;2023-07-16T01:17:13;24.92;55.26
76785;SHT30;66893;44.316;0.092;2023-07-16T01:19:38;24.92;55.24
76785;SHT30;66893;44.316;0.092;2023-07-16T01:30:08;24.90;55.39
76785;SHT30;66893;44.316;0.092;2023-07-16T01:32:37;24.91;55.41
76785;SHT30;66893;44.316;0.092;2023-07-16T01:35:04;24.91;55.48
76785;SHT30;66893;44.316;0.092;2023-07-16T01:37:31;24.87;55.43
76785;SHT30;66893;44.316;0.092;2023-07-16T01:39:57;24.88;55.46
76785;SHT30;66893;44.316;0.092;2023-07-16T01:42:23;24.90;55.51
76785;SHT30;66893;44.316;0.092;2023-07-16T01:44:48;24.90;55.54
76785;SHT30;66893;44.316;0.092;2023-07-16T01:47:22;24.90;55.50
76785;SHT30;66893;44.316;0.092;2023-07-16T01:49:48;24.87;55.62
76785;SHT30;66893;44.316;0.092;2023-07-16T01:52:14;24.88;55.56
76785;SHT30;66893;44.316;0.092;2023-07-16T01:54:39;24.88;55.58
76785;SHT30;66893;44.316;0.092;2023-07-16T01:57:05;24.86;55.59
76785;SHT30;66893;44.316;0.092;2023-07-16T01:59:30;24.87;55.61
76785;SHT30;66893;44.316;0.092;2023-07-16T02:01:56;24.86;55.63
76785;SHT30;66893;44.316;0.092;2023-07-16T02:04:21;24.84;55.61
76785;SHT30;66893;44.316;0.092;2023-07-16T02:06:47;24.83;55.67
76785;SHT30;66893;44.316;0.092;2023-07-16T02:09:13;24.83;55.66
76785;SHT30;66893;44.316;0.092;2023-07-16T02:11:39;24.81;55.67
76785;SHT30;66893;44.316;0.092;2023-07-16T02:14:05;24.81;55.68
76785;SHT30;66893;44.316;0.092;2023-07-16T02:16:30;24.80;55.74
76785;SHT30;66893;44.316;0.092;2023-07-16T02:18:56;24.80;55.72
76785;SHT30;66893;44.316;0.092;2023-07-16T02:21:21;24.77;55.74
76785;SHT30;66893;44.316;0.092;2023-07-16T02:23:46;24.76;55.73
76785;SHT30;66893;44.316;0.092;2023-07-16T02:26:12;24.76;55.76
76785;SHT30;66893;44.316;0.092;2023-07-16T02:28:37;24.77;55.78
76785;SHT30;66893;44.316;0.092;2023-07-16T02:31:03;24.74;55.79
76785;SHT30;66893;44.316;0.092;2023-07-16T02:33:28;24.74;55.79
76785;SHT30;66893;44.316;0.092;2023-07-16T02:35:54;24.76;55.78
76785;SHT30;66893;44.316;0.092;2023-07-16T02:38:19;24.73;55.84
76785;SHT30;66893;44.316;0.092;2023-07-16T02:40:46;24.70;55.85
76785;SHT30;66893;44.316;0.092;2023-07-16T02:43:12;24.72;55.86
76785;SHT30;66893;44.316;0.092;2023-07-16T02:45:38;24.72;55.83
76785;SHT30;66893;44.316;0.092;2023-07-16T02:48:04;24.67;55.88
76785;SHT30;66893;44.316;0.092;2023-07-16T02:50:34;24.69;55.90
76785;SHT30;66893;44.316;0.092;2023-07-16T02:53:00;24.67;55.88
76785;SHT30;66893;44.316;0.092;2023-07-16T02:55:25;24.66;55.94
76785;SHT30;66893;44.316;0.092;2023-07-16T02:57:51;24.67;55.96
76785;SHT30;66893;44.316;0.092;2023-07-16T03:00:16;24.64;56.03
76785;SHT30;66893;44.316;0.092;2023-07-16T03:02:41;24.62;55.99
76785;SHT30;66893;44.316;0.092;2023-07-16T03:05:07;24.62;56.03
76785;SHT30;66893;44.316;0.092;2023-07-16T03:07:32;24.60;56.04
76785;SHT30;66893;44.316;0.092;2023-07-16T03:09:58;24.62;56.07
76785;SHT30;66893;44.316;0.092;2023-07-16T03:12:24;24.62;56.06
76785;SHT30;66893;44.316;0.092;2023-07-16T03:14:50;24.62;56.15
76785;SHT30;66893;44.316;0.092;2023-07-16T03:17:16;24.60;56.10
76785;SHT30;66893;44.316;0.092;2023-07-16T03:19:41;24.57;56.14
76785;SHT30;66893;44.316;0.092;2023-07-16T03:22:07;24.60;56.18
76785;SHT30;66893;44.316;0.092;2023-07-16T03:24:32;24.55;56.20
76785;SHT30;66893;44.316;0.092;2023-07-16T03:26:57;24.59;56.22
76785;SHT30;66893;44.316;0.092;2023-07-16T03:29:23;24.55;56.22
76785;SHT30;66893;44.316;0.092;2023-07-16T03:31:48;24.55;56.27
76785;SHT30;66893;44.316;0.092;2023-07-16T03:34:14;24.51;56.29
76785;SHT30;66893;44.316;0.092;2023-07-16T03:36:39;24.52;56.32
76785;SHT30;66893;44.316;0.092;2023-07-16T03:39:04;24.53;56.31
76785;SHT30;66893;44.316;0.092;2023-07-16T03:41:30;24.49;56.37
76785;SHT30;66893;44.316;0.092;2023-07-16T03:43:56;24.49;56.34
76785;SHT30;66893;44.316;0.092;2023-07-16T03:46:21;24.48;56.43
76785;SHT30;66893;44.316;0.092;2023-07-16T03:48:47;24.49;56.42
76785;SHT30;66893;44.316;0.092;2023-07-16T03:51:12;24.46;56.50
76785;SHT30;66893;44.316;0.092;2023-07-16T03:53:37;24.46;56.51
76785;SHT30;66893;44.316;0.092;2023-07-16T03:56:03;24.45;56.49
76785;SHT30;66893;44.316;0.092;2023-07-16T03:58:29;24.45;56.59
76785;SHT30;66893;44.316;0.092;2023-07-16T04:00:54;24.43;56.61
76785;SHT30;66893;44.316;0.092;2023-07-16T04:03:20;24.42;56.64
76785;SHT30;66893;44.316;0.092;2023-07-16T04:05:46;24.42;56.65
76785;SHT30;66893;44.316;0.092;2023-07-16T04:08:11;24.43;56.70
76785;SHT30;66893;44.316;0.092;2023-07-16T04:10:36;24.40;56.70
76785;SHT30;66893;44.316;0.092;2023-07-16T04:13:02;24.40;56.73
76785;SHT30;66893;44.316;0.092;2023-07-16T04:15:28;24.39;56.75
76785;SHT30;66893;44.316;0.092;2023-07-16T04:17:53;24.40;56.79
76785;SHT30;66893;44.316;0.092;2023-07-16T04:20:19;24.39;56.85
76785;SHT30;66893;44.316;0.092;2023-07-16T04:22:44;24.39;56.80
76785;SHT30;66893;44.316;0.092;2023-07-16T04:25:10;24.39;56.82
76785;SHT30;66893;44.316;0.092;2023-07-16T04:27:35;24.37;56.89
76785;SHT30;66893;44.316;0.092;2023-07-16T04:30:01;24.36;56.93
76785;SHT30;66893;44.316;0.092;2023-07-16T04:32:26;24.37;56.98
76785;SHT30;66893;44.316;0.092;2023-07-16T04:34:52;24.36;56.98
76785;SHT30;66893;44.316;0.092;2023-07-16T04:37:17;24.36;56.99
76785;SHT30;66893;44.316;0.092;2023-07-16T04:39:43;24.37;57.04
76785;SHT30;66893;44.316;0.092;2023-07-16T04:42:08;24.36;57.05
76785;SHT30;66893;44.316;0.092;2023-07-16T04:44:34;24.35;57.11
76785;SHT30;66893;44.316;0.092;2023-07-16T04:46:59;24.35;57.06
76785;SHT30;66893;44.316;0.092;2023-07-16T04:49:24;24.36;57.11
76785;SHT30;66893;44.316;0.092;2023-07-16T04:51:50;24.35;57.13
76785;SHT30;66893;44.316;0.092;2023-07-16T04:54:15;24.35;57.18
76785;SHT30;66893;44.316;0.092;2023-07-16T04:56:41;24.35;57.22
76785;SHT30;66893;44.316;0.092;2023-07-16T04:59:06;24.33;57.18
76785;SHT30;66893;44.316;0.092;2023-07-16T05:01:31;24.33;57.24
76785;SHT30;66893;44.316;0.092;2023-07-16T05:03:57;24.33;57.27
76785;SHT30;66893;44.316;0.092;2023-07-16T05:06:22;24.36;57.26
76785;SHT30;66893;44.316;0.092;2023-07-16T05:08:48;24.36;57.24
76785;SHT30;66893;44.316;0.092;2023-07-16T05:11:13;24.36;57.28
76785;SHT30;66893;44.316;0.092;2023-07-16T05:13:39;24.35;57.29
76785;SHT30;66893;44.316;0.092;2023-07-16T05:16:04;24.36;57.31
76785;SHT30;66893;44.316;0.092;2023-07-16T05:18:30;24.35;57.34
76785;SHT30;66893;44.316;0.092;2023-07-16T05:20:55;24.37;57.35
76785;SHT30;66893;44.316;0.092;2023-07-16T05:23:20;24.37;57.37
76785;SHT30;66893;44.316;0.092;2023-07-16T05:25:49;24.39;57.31
76785;SHT30;66893;44.316;0.092;2023-07-16T05:28:19;24.40;57.36
76785;SHT30;66893;44.316;0.092;2023-07-16T05:30:44;24.40;57.35
76785;SHT30;66893;44.316;0.092;2023-07-16T05:33:10;24.40;57.34
76785;SHT30;66893;44.316;0.092;2023-07-16T05:35:36;24.42;57.34
76785;SHT30;66893;44.316;0.092;2023-07-16T05:38:01;24.43;57.32
76785;SHT30;66893;44.316;0.092;2023-07-16T05:40:27;24.43;57.35
76785;SHT30;66893;44.316;0.092;2023-07-16T05:42:52;24.42;57.36
76785;SHT30;66893;44.316;0.092;2023-07-16T05:45:18;24.40;57.29
76785;SHT30;66893;44.316;0.092;2023-07-16T05:47:43;24.29;57.36
76785;SHT30;66893;44.316;0.092;2023-07-16T05:50:09;24.19;57.56
76785;SHT30;66893;44.316;0.092;2023-07-16T05:52:34;24.05;57.72
76785;SHT30;66893;44.316;0.092;2023-07-16T05:55:00;23.93;57.98
76785;SHT30;66893;44.316;0.092;2023-07-16T05:57:25;23.82;58.37
76785;SHT30;66893;44.316;0.092;2023-07-16T05:59:50;23.74;58.41
76785;SHT30;66893;44.316;0.092;2023-07-16T06:02:16;23.69;58.58
76785;SHT30;66893;44.316;0.092;2023-07-16T06:04:41;23.63;58.69
76785;SHT30;66893;44.316;0.092;2023-07-16T06:07:07;23.57;58.91
76785;SHT30;66893;44.316;0.092;2023-07-16T06:09:33;23.50;58.97
76785;SHT30;66893;44.316;0.092;2023-07-16T06:11:58;23.47;59.11
76785;SHT30;66893;44.316;0.092;2023-07-16T06:14:24;23.42;59.32
76785;SHT30;66893;44.316;0.092;2023-07-16T06:16:49;23.39;59.68
76785;SHT30;66893;44.316;0.092;2023-07-16T06:19:15;23.38;59.73
76785;SHT30;66893;44.316;0.092;2023-07-16T06:21:40;23.36;59.76
76785;SHT30;66893;44.316;0.092;2023-07-16T06:24:06;23.33;59.73
76785;SHT30;66893;44.316;0.092;2023-07-16T06:26:31;23.35;59.82
76785;SHT30;66893;44.316;0.092;2023-07-16T06:28:57;23.35;59.94
76785;SHT30;66893;44.316;0.092;2023-07-16T06:31:22;23.35;60.04
76785;SHT30;66893;44.316;0.092;2023-07-16T06:33:47;23.33;60.23
76785;SHT30;66893;44.316;0.092;2023-07-16T06:36:14;23.35;60.32
76785;SHT30;66893;44.316;0.092;2023-07-16T06:38:40;23.33;60.37
76785;SHT30;66893;44.316;0.092;2023-07-16T06:41:06;23.29;60.54
76785;SHT30;66893;44.316;0.092;2023-07-16T06:43:31;23.36;60.28
76785;SHT30;66893;44.316;0.092;2023-07-16T06:45:57;23.33;60.23
76785;SHT30;66893;44.316;0.092;2023-07-16T06:48:22;23.26;60.46
76785;SHT30;66893;44.316;0.092;2023-07-16T06:50:49;23.26;60.54
76785;SHT30;66893;44.316;0.092;2023-07-16T06:53:15;23.26;60.67
76785;SHT30;66893;44.316;0.092;2023-07-16T06:55:41;23.25;60.68
76785;SHT30;66893;44.316;0.092;2023-07-16T06:58:10;23.23;60.82
76785;SHT30;66893;44.316;0.092;2023-07-16T07:00:36;23.26;60.99
76785;SHT30;66893;44.316;0.092;2023-07-16T07:03:01;23.27;60.93
76785;SHT30;66893;44.316;0.092;2023-07-16T07:05:26;23.33;61.01
76785;SHT30;66893;44.316;0.092;2023-07-16T07:07:52;23.35;61.07
76785;SHT30;66893;44.316;0.092;2023-07-16T07:10:17;23.45;61.10
76785;SHT30;66893;44.316;0.092;2023-07-16T07:12:43;23.52;60.94
76785;SHT30;66893;44.316;0.092;2023-07-16T07:15:09;23.63;60.83
76785;SHT30;66893;44.316;0.092;2023-07-16T07:17:35;23.71;60.72
76785;SHT30;66893;44.316;0.092;2023-07-16T07:20:01;23.81;60.64
76785;SHT30;66893;44.316;0.092;2023-07-16T07:22:27;23.87;60.52
76785;SHT30;66893;44.316;0.092;2023-07-16T07:24:52;23.96;60.53
76785;SHT30;66893;44.316;0.092;2023-07-16T07:27:18;24.02;60.43
76785;SHT30;66893;44.316;0.092;2023-07-16T07:29:43;24.11;60.27
76785;SHT30;66893;44.316;0.092;2023-07-16T07:32:09;24.17;60.29
76785;SHT30;66893;44.316;0.092;2023-07-16T07:34:35;24.26;60.14
76785;SHT30;66893;44.316;0.092;2023-07-16T07:37:00;24.32;60.02
76785;SHT30;66893;44.316;0.092;2023-07-16T07:39:25;24.36;59.90
76785;SHT30;66893;44.316;0.092;2023-07-16T07:41:51;24.45;59.74
76785;SHT30;66893;44.316;0.092;2023-07-16T07:44:16;24.49;59.68
76785;SHT30;66893;44.316;0.092;2023-07-16T07:46:42;24.56;59.49
76785;SHT30;66893;44.316;0.092;2023-07-16T07:49:07;24.60;59.35
76785;SHT30;66893;44.316;0.092;2023-07-16T07:51:32;24.67;59.35
76785;SHT30;66893;44.316;0.092;2023-07-16T07:53:58;24.73;59.24
76785;SHT30;66893;44.316;0.092;2023-07-16T07:56:23;24.76;59.13
76785;SHT30;66893;44.316;0.092;2023-07-16T07:58:49;24.80;59.08
76785;SHT30;66893;44.316;0.092;2023-07-16T08:01:14;24.87;58.94
76785;SHT30;66893;44.316;0.092;2023-07-16T08:03:40;24.91;58.66
76785;SHT30;66893;44.316;0.092;2023-07-16T08:06:05;24.95;58.04
76785;SHT30;66893;44.316;0.092;2023-07-16T08:08:30;24.90;57.71
76785;SHT30;66893;44.316;0.092;2023-07-16T08:10:56;24.88;57.74
76785;SHT30;66893;44.316;0.092;2023-07-16T08:13:21;24.90;57.63
76785;SHT30;66893;44.316;0.092;2023-07-16T08:15:47;24.90;57.38
76785;SHT30;66893;44.316;0.092;2023-07-16T08:18:15;24.91;57.18
76785;SHT30;66893;44.316;0.092;2023-07-16T08:20:40;24.91;56.97
76785;SHT30;66893;44.316;0.092;2023-07-16T08:23:06;24.95;56.77
76785;SHT30;66893;44.316;0.092;2023-07-16T08:25:31;24.94;56.16
76785;SHT30;66893;44.316;0.092;2023-07-16T08:27:57;24.97;55.51
76785;SHT30;66893;44.316;0.092;2023-07-16T08:30:22;24.97;55.60
76785;SHT30;66893;44.316;0.092;2023-07-16T08:32:48;24.98;55.29
76785;SHT30;66893;44.316;0.092;2023-07-16T08:35:15;25.00;55.46
76785;SHT30;66893;44.316;0.092;2023-07-16T08:37:45;25.01;55.55
76785;SHT30;66893;44.316;0.092;2023-07-16T08:40:11;25.06;55.62
76785;SHT30;66893;44.316;0.092;2023-07-16T08:42:37;25.12;55.47
76785;SHT30;66893;44.316;0.092;2023-07-16T08:45:06;25.15;55.02
76785;SHT30;66893;44.316;0.092;2023-07-16T08:47:33;25.18;54.99
76785;SHT30;66893;44.316;0.092;2023-07-16T08:50:00;25.18;55.04
76785;SHT30;66893;44.316;0.092;2023-07-16T08:52:27;25.24;54.85
76785;SHT30;66893;44.316;0.092;2023-07-16T08:54:53;25.31;54.80
76785;SHT30;66893;44.316;0.092;2023-07-16T08:57:20;25.34;54.58
76785;SHT30;66893;44.316;0.092;2023-07-16T08:59:49;25.38;54.47
76785;SHT30;66893;44.316;0.092;2023-07-16T09:02:19;25.41;54.16
76785;SHT30;66893;44.316;0.092;2023-07-16T09:04:47;25.47;54.07
76785;SHT30;66893;44.316;0.092;2023-07-16T09:07:14;25.50;53.98
76785;SHT30;66893;44.316;0.092;2023-07-16T09:09:40;25.55;53.90
76785;SHT30;66893;44.316;0.092;2023-07-16T09:12:06;25.59;53.37
76785;SHT30;66893;44.316;0.092;2023-07-16T09:14:31;25.62;53.16
76785;SHT30;66893;44.316;0.092;2023-07-16T09:16:57;25.62;53.16
76785;SHT30;66893;44.316;0.092;2023-07-16T09:19:22;25.65;53.09
76785;SHT30;66893;44.316;0.092;2023-07-16T09:21:51;25.69;53.14
76785;SHT30;66893;44.316;0.092;2023-07-16T09:24:18;25.73;53.18
76785;SHT30;66893;44.316;0.092;2023-07-16T09:26:54;25.74;53.06
76785;SHT30;66893;44.316;0.092;2023-07-16T09:29:20;25.76;53.14
76785;SHT30;66893;44.316;0.092;2023-07-16T09:32:12;25.77;52.79
76785;SHT30;66893;44.316;0.092;2023-07-16T09:34:37;25.77;52.64
76785;SHT30;66893;44.316;0.092;2023-07-16T09:37:05;25.83;52.89
76785;SHT30;66893;44.316;0.092;2023-07-16T09:39:32;25.86;53.01
76785;SHT30;66893;44.316;0.092;2023-07-16T09:41:58;25.89;52.91
76785;SHT30;66893;44.316;0.092;2023-07-16T09:44:23;25.97;52.95
76785;SHT30;66893;44.316;0.092;2023-07-16T09:46:49;25.96;53.05
76785;SHT30;66893;44.316;0.092;2023-07-16T09:49:15;25.98;53.10
76785;SHT30;66893;44.316;0.092;2023-07-16T09:51:43;26.04;52.96
76785;SHT30;66893;44.316;0.092;2023-07-16T09:54:12;26.08;53.11
76785;SHT30;66893;44.316;0.092;2023-07-16T09:56:46;26.10;53.03
76785;SHT30;66893;44.316;0.092;2023-07-16T09:59:17;26.14;52.95
76785;SHT30;66893;44.316;0.092;2023-07-16T10:01:44;26.16;52.98
76785;SHT30;66893;44.316;0.092;2023-07-16T10:09:38;26.24;53.09
76785;SHT30;66893;44.316;0.092;2023-07-16T10:12:11;26.25;53.03
76785;SHT30;66893;44.316;0.092;2023-07-16T10:14:42;26.28;53.08
76785;SHT30;66893;44.316;0.092;2023-07-16T10:17:12;26.31;53.10
76785;SHT30;66893;44.316;0.092;2023-07-16T10:19:54;26.36;53.08
76785;SHT30;66893;44.316;0.092;2023-07-16T10:22:34;26.39;53.12
76785;SHT30;66893;44.316;0.092;2023-07-16T10:25:01;26.39;53.12
76785;SHT30;66893;44.316;0.092;2023-07-16T10:27:36;26.41;52.85
76785;SHT30;66893;44.316;0.092;2023-07-16T10:30:03;26.46;52.84
76785;SHT30;66893;44.316;0.092;2023-07-16T10:32:31;26.48;52.82
76785;SHT30;66893;44.316;0.092;2023-07-16T10:34:57;26.52;52.87
76785;SHT30;66893;44.316;0.092;2023-07-16T10:37:23;26.52;52.91
76785;SHT30;66893;44.316;0.092;2023-07-16T10:39:50;26.57;52.93
76785;SHT30;66893;44.316;0.092;2023-07-16T10:42:16;26.59;52.92
76785;SHT30;66893;44.316;0.092;2023-07-16T10:44:42;26.60;52.89
76785;SHT30;66893;44.316;0.092;2023-07-16T10:47:09;26.63;52.89
76785;SHT30;66893;44.316;0.092;2023-07-16T10:49:35;26.66;52.82
76785;SHT30;66893;44.316;0.092;2023-07-16T10:52:01;26.71;52.83
76785;SHT30;66893;44.316;0.092;2023-07-16T10:54:27;26.75;52.80
76785;SHT30;66893;44.316;0.092;2023-07-16T10:56:52;26.80;52.91
76785;SHT30;66893;44.316;0.092;2023-07-16T10:59:18;26.86;53.08
76785;SHT30;66893;44.316;0.092;2023-07-16T11:01:43;26.91;53.19
76785;SHT30;66893;44.316;0.092;2023-07-16T11:04:09;26.97;53.18
76785;SHT30;66893;44.316;0.092;2023-07-16T11:06:35;27.06;53.34
76785;SHT30;66893;44.316;0.092;2023-07-16T11:09:09;27.08;53.13
76785;SHT30;66893;44.316;0.092;2023-07-16T11:11:35;27.12;53.16
76785;SHT30;66893;44.316;0.092;2023-07-16T11:14:04;27.18;53.23
76785;SHT30;66893;44.316;0.092;2023-07-16T11:16:35;27.26;53.02
76785;SHT30;66893;44.316;0.092;2023-07-16T11:19:03;27.30;52.79
76785;SHT30;66893;44.316;0.092;2023-07-16T11:21:29;27.39;52.85
76785;SHT30;66893;44.316;0.092;2023-07-16T11:23:55;27.42;52.90
76785;SHT30;66893;44.316;0.092;2023-07-16T11:26:20;27.46;52.79
76785;SHT30;66893;44.316;0.092;2023-07-16T11:28:46;27.54;52.85
76785;SHT30;66893;44.316;0.092;2023-07-16T11:31:16;27.62;52.67
76785;SHT30;66893;44.316;0.092;2023-07-16T11:33:45;27.69;52.81
76785;SHT30;66893;44.316;0.092;2023-07-16T11:36:11;27.72;52.54
76785;SHT30;66893;44.316;0.092;2023-07-16T11:38:38;27.79;52.39
76785;SHT30;66893;44.316;0.092;2023-07-16T11:41:04;27.86;52.43
76785;SHT30;66893;44.316;0.092;2023-07-16T11:43:34;27.92;52.22
76785;SHT30;66893;44.316;0.092;2023-07-16T11:46:01;27.97;52.22
76785;SHT30;66893;44.316;0.092;2023-07-16T11:48:26;28.03;52.36
76785;SHT30;66893;44.316;0.092;2023-07-16T11:50:52;28.09;52.34
76785;SHT30;66893;44.316;0.092;2023-07-16T11:53:17;28.16;52.32
76785;SHT30;66893;44.316;0.092;2023-07-16T11:55:42;28.20;52.24
76785;SHT30;66893;44.316;0.092;2023-07-16T11:58:08;28.27;52.26
76785;SHT30;66893;44.316;0.092;2023-07-16T12:00:33;28.34;52.32
76785;SHT30;66893;44.316;0.092;2023-07-16T12:02:59;28.40;52.19
76785;SHT30;66893;44.316;0.092;2023-07-16T12:05:24;28.45;52.25
76785;SHT30;66893;44.316;0.092;2023-07-16T12:07:51;28.52;52.27
76785;SHT30;66893;44.316;0.092;2023-07-16T12:10:17;28.55;51.93
76785;SHT30;66893;44.316;0.092;2023-07-16T12:12:42;28.65;51.95
76785;SHT30;66893;44.316;0.092;2023-07-16T12:15:08;28.72;51.60
76785;SHT30;66893;44.316;0.092;2023-07-16T12:17:34;28.79;51.70
76785;SHT30;66893;44.316;0.092;2023-07-16T12:20:00;28.83;51.78
76785;SHT30;66893;44.316;0.092;2023-07-16T12:22:27;28.90;51.89
76785;SHT30;66893;44.316;0.092;2023-07-16T12:24:52;28.92;51.82
76785;SHT30;66893;44.316;0.092;2023-07-16T12:27:18;28.96;51.94
76785;SHT30;66893;44.316;0.092;2023-07-16T12:29:44;29.00;51.99
76785;SHT30;66893;44.316;0.092;2023-07-16T12:32:10;29.00;52.00
76785;SHT30;66893;44.316;0.092;2023-07-16T12:34:35;29.04;51.93
76785;SHT30;66893;44.316;0.092;2023-07-16T12:37:01;29.07;51.94
76785;SHT30;66893;44.316;0.092;2023-07-16T12:39:28;29.10;51.93
76785;SHT30;66893;44.316;0.092;2023-07-16T12:41:54;29.13;52.02
76785;SHT30;66893;44.316;0.092;2023-07-16T12:44:19;29.16;51.92
76785;SHT30;66893;44.316;0.092;2023-07-16T12:46:44;29.16;51.91
76785;SHT30;66893;44.316;0.092;2023-07-16T12:49:10;29.16;51.77
76785;SHT30;66893;44.316;0.092;2023-07-16T12:51:35;29.21;51.61
76785;SHT30;66893;44.316;0.092;2023-07-16T12:54:01;29.23;51.51
76785;SHT30;66893;44.316;0.092;2023-07-16T12:56:27;29.23;51.43
76785;SHT30;66893;44.316;0.092;2023-07-16T12:58:52;29.26;51.32
76785;SHT30;66893;44.316;0.092;2023-07-16T13:01:18;29.30;51.18
76785;SHT30;66893;44.316;0.092;2023-07-16T13:03:43;29.33;51.13
76785;SHT30;66893;44.316;0.092;2023-07-16T13:06:08;29.34;50.97
76785;SHT30;66893;44.316;0.092;2023-07-16T13:08:34;29.39;50.87
76785;SHT30;66893;44.316;0.092;2023-07-16T13:11:00;29.44;50.84
76785;SHT30;66893;44.316;0.092;2023-07-16T13:13:26;29.45;50.43
76785;SHT30;66893;44.316;0.092;2023-07-16T13:15:51;29.50;50.39
76785;SHT30;66893;44.316;0.092;2023-07-16T13:18:17;29.51;50.35
76785;SHT30;66893;44.316;0.092;2023-07-16T13:20:43;29.51;50.50
76785;SHT30;66893;44.316;0.092;2023-07-16T13:23:09;29.54;50.55
76785;SHT30;66893;44.316;0.092;2023-07-16T13:25:35;29.54;50.44
76785;SHT30;66893;44.316;0.092;2023-07-16T13:28:02;29.57;50.45
76785;SHT30;66893;44.316;0.092;2023-07-16T13:30:28;29.55;50.20
76785;SHT30;66893;44.316;0.092;2023-07-16T13:32:53;29.55;50.25
76785;SHT30;66893;44.316;0.092;2023-07-16T13:35:24;29.57;50.37
76785;SHT30;66893;44.316;0.092;2023-07-16T13:37:49;29.55;50.40
76785;SHT30;66893;44.316;0.092;2023-07-16T13:40:16;29.58;50.28
76785;SHT30;66893;44.316;0.092;2023-07-16T13:42:42;29.58;50.32
76785;SHT30;66893;44.316;0.092;2023-07-16T13:45:07;29.53;50.41
76785;SHT30;66893;44.316;0.092;2023-07-16T13:47:33;29.55;50.44
76785;SHT30;66893;44.316;0.092;2023-07-16T13:49:58;29.53;50.50
76785;SHT30;66893;44.316;0.092;2023-07-16T13:52:24;29.54;50.50
76785;SHT30;66893;44.316;0.092;2023-07-16T13:54:49;29.51;50.55
76785;SHT30;66893;44.316;0.092;2023-07-16T13:57:15;29.51;50.57
76785;SHT30;66893;44.316;0.092;2023-07-16T13:59:40;29.50;50.58
76785;SHT30;66893;44.316;0.092;2023-07-16T14:02:06;29.48;50.65
76785;SHT30;66893;44.316;0.092;2023-07-16T14:04:32;29.48;50.59
76785;SHT30;66893;44.316;0.092;2023-07-16T14:06:58;29.48;50.63
76785;SHT30;66893;44.316;0.092;2023-07-16T14:09:24;29.47;50.59
76785;SHT30;66893;44.316;0.092;2023-07-16T14:11:50;29.44;50.71
76785;SHT30;66893;44.316;0.092;2023-07-16T14:14:16;29.44;50.69
76785;SHT30;66893;44.316;0.092;2023-07-16T14:16:41;29.44;50.71
76785;SHT30;66893;44.316;0.092;2023-07-16T14:19:08;29.45;50.32
76785;SHT30;66893;44.316;0.092;2023-07-16T14:21:34;29.44;50.46
76785;SHT30;66893;44.316;0.092;2023-07-16T14:23:59;29.44;50.49
76785;SHT30;66893;44.316;0.092;2023-07-16T14:26:25;29.45;50.44
76785;SHT30;66893;44.316;0.092;2023-07-16T14:28:50;29.47;50.04
76785;SHT30;66893;44.316;0.092;2023-07-16T14:31:16;29.50;49.90
76785;SHT30;66893;44.316;0.092;2023-07-16T14:33:41;29.53;49.93
76785;SHT30;66893;44.316;0.092;2023-07-16T14:36:07;29.54;49.94
76785;SHT30;66893;44.316;0.092;2023-07-16T14:38:32;29.53;50.05
76785;SHT30;66893;44.316;0.092;2023-07-16T14:40:57;29.55;50.09
76785;SHT30;66893;44.316;0.092;2023-07-16T14:43:23;29.57;49.89
76785;SHT30;66893;44.316;0.092;2023-07-16T14:45:49;29.57;49.36
76785;SHT30;66893;44.316;0.092;2023-07-16T14:48:14;29.53;49.00
76785;SHT30;66893;44.316;0.092;2023-07-16T14:50:41;29.53;48.83
76785;SHT30;66893;44.316;0.092;2023-07-16T14:53:06;29.50;48.98
76785;SHT30;66893;44.316;0.092;2023-07-16T14:55:32;29.50;48.88
76785;SHT30;66893;44.316;0.092;2023-07-16T14:57:57;29.53;48.85
76785;SHT30;66893;44.316;0.092;2023-07-16T15:00:23;29.51;48.76
76785;SHT30;66893;44.316;0.092;2023-07-16T15:02:49;29.50;48.89
76785;SHT30;66893;44.316;0.092;2023-07-16T15:05:14;29.50;48.88
76785;SHT30;66893;44.316;0.092;2023-07-16T15:07:40;29.47;48.89
76785;SHT30;66893;44.316;0.092;2023-07-16T15:10:07;29.48;48.90
76785;SHT30;66893;44.316;0.092;2023-07-16T15:12:32;29.45;49.02
76785;SHT30;66893;44.316;0.092;2023-07-16T15:14:58;29.47;48.91
76785;SHT30;66893;44.316;0.092;2023-07-16T15:17:24;29.44;48.78
76785;SHT30;66893;44.316;0.092;2023-07-16T15:19:51;29.43;48.66
76785;SHT30;66893;44.316;0.092;2023-07-16T15:22:16;29.43;48.56
76785;SHT30;66893;44.316;0.092;2023-07-16T15:24:44;29.38;48.51
76785;SHT30;66893;44.316;0.092;2023-07-16T15:27:09;29.37;48.33
76785;SHT30;66893;44.316;0.092;2023-07-16T15:29:35;29.37;48.27
76785;SHT30;66893;44.316;0.092;2023-07-16T15:32:00;29.34;48.12
76785;SHT30;66893;44.316;0.092;2023-07-16T15:34:26;29.35;48.28
76785;SHT30;66893;44.316;0.092;2023-07-16T15:36:51;29.34;48.12